sensor_id;sensor_type;location;lat;lon;timestamp;P1;durP1;ratioP1;P2;durP2;ratioP2
56045;SDS011;41913;51.030;3.706;2023-12-22T00:00:29;5.85;;;2.13;;
56045;SDS011;41913;51.030;3.706;2023-12-22T00:02:55;3.20;;;1.42;;
56045;SDS011;41913;51.030;3.706;2023-12-22T00:05:21;4.45;;;1.40;;
56045;SDS011;41913;51.030;3.706;2023-12-22T00:07:46;4.75;;;1.75;;
56045;SDS011;41913;51.030;3.706;2023-12-22T00:10:12;5.38;;;1.75;;
56045;SDS011;41913;51.030;3.706;2023-12-22T00:12:38;3.25;;;1.55;;
56045;SDS011;41913;51.030;3.706;2023-12-22T00:15:05;3.88;;;1.65;;
56045;SDS011;41913;51.030;3.706;2023-12-22T00:17:31;5.00;;;1.48;;
56045;SDS011;41913;51.030;3.706;2023-12-22T00:19:58;3.80;;;1.65;;
56045;SDS011;41913;51.030;3.706;2023-12-22T00:22:28;2.45;;;1.38;;
56045;SDS011;41913;51.030;3.706;2023-12-22T00:24:54;7.75;;;1.60;;
56045;SDS011;41913;51.030;3.706;2023-12-22T00:27:20;3.47;;;2.03;;
56045;SDS011;41913;51.030;3.706;2023-12-22T00:29:46;4.47;;;1.85;;
56045;SDS011;41913;51.030;3.706;2023-12-22T00:32:11;5.53;;;1.85;;
56045;SDS011;41913;51.030;3.706;2023-12-22T00:34:38;7.03;;;1.80;;
56045;SDS011;41913;51.030;3.706;2023-12-22T00:37:04;7.50;;;1.77;;
56045;SDS011;41913;51.030;3.706;2023-12-22T00:39:30;8.55;;;2.75;;
56045;SDS011;41913;51.030;3.706;2023-12-22T00:41:56;5.90;;;1.63;;
56045;SDS011;41913;51.030;3.706;2023-12-22T00:44:22;7.60;;;2.33;;
56045;SDS011;41913;51.030;3.706;2023-12-22T00:46:48;4.95;;;1.98;;
56045;SDS011;41913;51.030;3.706;2023-12-22T00:49:14;7.78;;;1.92;;
56045;SDS011;41913;51.030;3.706;2023-12-22T00:51:40;7.82;;;2.08;;
56045;SDS011;41913;51.030;3.706;2023-12-22T00:54:06;5.15;;;2.05;;
56045;SDS011;41913;51.030;3.706;2023-12-22T00:56:31;6.28;;;2.22;;
56045;SDS011;41913;51.030;3.706;2023-12-22T00:58:57;2.47;;;1.13;;
56045;SDS011;41913;51.030;3.706;2023-12-22T01:01:24;3.70;;;1.30;;
56045;SDS011;41913;51.030;3.706;2023-12-22T01:03:50;5.55;;;2.10;;
56045;SDS011;41913;51.030;3.706;2023-12-22T01:06:15;3.65;;;1.60;;
56045;SDS011;41913;51.030;3.706;2023-12-22T01:08:41;5.57;;;2.10;;
56045;SDS011;41913;51.030;3.706;2023-12-22T01:11:07;3.95;;;1.55;;
56045;SDS011;41913;51.030;3.706;2023-12-22T01:13:34;7.22;;;2.08;;
56045;SDS011;41913;51.030;3.706;2023-12-22T01:15:59;3.25;;;1.52;;
56045;SDS011;41913;51.030;3.706;2023-12-22T01:18:25;4.03;;;1.50;;
56045;SDS011;41913;51.030;3.706;2023-12-22T01:20:54;4.40;;;1.60;;
56045;SDS011;41913;51.030;3.706;2023-12-22T01:23:19;5.55;;;1.70;;
56045;SDS011;41913;51.030;3.706;2023-12-22T01:25:45;3.58;;;1.70;;
56045;SDS011;41913;51.030;3.706;2023-12-22T01:28:11;5.63;;;2.08;;
56045;SDS011;41913;51.030;3.706;2023-12-22T01:30:38;5.32;;;1.77;;
56045;SDS011;41913;51.030;3.706;2023-12-22T01:33:03;5.32;;;1.98;;
56045;SDS011;41913;51.030;3.706;2023-12-22T01:35:29;7.85;;;1.65;;
56045;SDS011;41913;51.030;3.706;2023-12-22T01:37:55;5.15;;;1.95;;
56045;SDS011;41913;51.030;3.706;2023-12-22T01:40:22;8.10;;;2.33;;
56045;SDS011;41913;51.030;3.706;2023-12-22T01:42:47;3.42;;;1.52;;
56045;SDS011;41913;51.030;3.706;2023-12-22T01:45:13;5.40;;;1.77;;
56045;SDS011;41913;51.030;3.706;2023-12-22T01:47:39;3.97;;;2.17;;
56045;SDS011;41913;51.030;3.706;2023-12-22T01:50:05;7.55;;;1.98;;
56045;SDS011;41913;51.030;3.706;2023-12-22T01:52:31;5.00;;;1.60;;
56045;SDS011;41913;51.030;3.706;2023-12-22T01:54:57;7.60;;;2.05;;
56045;SDS011;41913;51.030;3.706;2023-12-22T01:57:23;7.07;;;2.17;;
56045;SDS011;41913;51.030;3.706;2023-12-22T01:59:49;4.20;;;2.55;;
56045;SDS011;41913;51.030;3.706;2023-12-22T02:02:15;5.68;;;1.67;;
56045;SDS011;41913;51.030;3.706;2023-12-22T02:04:41;6.68;;;1.73;;
56045;SDS011;41913;51.030;3.706;2023-12-22T02:07:09;2.83;;;1.48;;
56045;SDS011;41913;51.030;3.706;2023-12-22T02:09:35;4.55;;;1.35;;
56045;SDS011;41913;51.030;3.706;2023-12-22T02:12:02;2.70;;;1.25;;
56045;SDS011;41913;51.030;3.706;2023-12-22T02:14:28;7.90;;;1.85;;
56045;SDS011;41913;51.030;3.706;2023-12-22T02:16:57;5.22;;;1.65;;
56045;SDS011;41913;51.030;3.706;2023-12-22T02:19:50;6.38;;;1.40;;
56045;SDS011;41913;51.030;3.706;2023-12-22T02:22:15;5.70;;;1.38;;
56045;SDS011;41913;51.030;3.706;2023-12-22T02:24:41;3.33;;;1.45;;
56045;SDS011;41913;51.030;3.706;2023-12-22T02:27:26;3.53;;;1.77;;
56045;SDS011;41913;51.030;3.706;2023-12-22T02:30:07;3.35;;;1.27;;
56045;SDS011;41913;51.030;3.706;2023-12-22T02:32:58;7.32;;;2.03;;
56045;SDS011;41913;51.030;3.706;2023-12-22T02:35:26;8.23;;;2.38;;
56045;SDS011;41913;51.030;3.706;2023-12-22T02:37:54;5.82;;;1.77;;
56045;SDS011;41913;51.030;3.706;2023-12-22T02:40:22;3.53;;;1.75;;
56045;SDS011;41913;51.030;3.706;2023-12-22T02:42:49;4.85;;;1.77;;
56045;SDS011;41913;51.030;3.706;2023-12-22T02:45:16;4.38;;;1.60;;
56045;SDS011;41913;51.030;3.706;2023-12-22T02:47:43;4.80;;;1.67;;
56045;SDS011;41913;51.030;3.706;2023-12-22T02:50:09;4.35;;;1.60;;
56045;SDS011;41913;51.030;3.706;2023-12-22T02:52:37;5.85;;;1.60;;
56045;SDS011;41913;51.030;3.706;2023-12-22T02:55:03;2.80;;;1.42;;
56045;SDS011;41913;51.030;3.706;2023-12-22T02:57:29;6.28;;;2.22;;
56045;SDS011;41913;51.030;3.706;2023-12-22T02:59:56;4.88;;;2.38;;
56045;SDS011;41913;51.030;3.706;2023-12-22T03:02:22;9.38;;;2.58;;
56045;SDS011;41913;51.030;3.706;2023-12-22T03:04:48;5.78;;;1.55;;
56045;SDS011;41913;51.030;3.706;2023-12-22T03:07:14;7.28;;;2.83;;
56045;SDS011;41913;51.030;3.706;2023-12-22T03:09:41;8.13;;;3.00;;
56045;SDS011;41913;51.030;3.706;2023-12-22T03:12:08;7.20;;;1.85;;
56045;SDS011;41913;51.030;3.706;2023-12-22T03:14:34;5.43;;;1.88;;
56045;SDS011;41913;51.030;3.706;2023-12-22T03:17:04;6.28;;;2.15;;
56045;SDS011;41913;51.030;3.706;2023-12-22T03:19:31;6.78;;;2.20;;
56045;SDS011;41913;51.030;3.706;2023-12-22T03:21:58;3.60;;;1.75;;
56045;SDS011;41913;51.030;3.706;2023-12-22T03:24:24;4.65;;;1.98;;
56045;SDS011;41913;51.030;3.706;2023-12-22T03:26:53;5.65;;;2.47;;
56045;SDS011;41913;51.030;3.706;2023-12-22T03:29:19;9.52;;;2.08;;
56045;SDS011;41913;51.030;3.706;2023-12-22T03:31:45;7.63;;;2.15;;
56045;SDS011;41913;51.030;3.706;2023-12-22T03:34:12;5.85;;;1.70;;
56045;SDS011;41913;51.030;3.706;2023-12-22T03:36:38;3.08;;;1.50;;
56045;SDS011;41913;51.030;3.706;2023-12-22T03:39:04;4.28;;;1.77;;
56045;SDS011;41913;51.030;3.706;2023-12-22T03:41:30;5.30;;;1.67;;
56045;SDS011;41913;51.030;3.706;2023-12-22T03:43:56;4.15;;;1.75;;
56045;SDS011;41913;51.030;3.706;2023-12-22T03:46:22;5.82;;;1.65;;
56045;SDS011;41913;51.030;3.706;2023-12-22T03:48:49;3.42;;;1.23;;
56045;SDS011;41913;51.030;3.706;2023-12-22T03:51:17;4.90;;;1.55;;
56045;SDS011;41913;51.030;3.706;2023-12-22T03:53:43;5.75;;;1.90;;
56045;SDS011;41913;51.030;3.706;2023-12-22T03:56:09;5.10;;;1.83;;
56045;SDS011;41913;51.030;3.706;2023-12-22T03:58:35;6.35;;;1.85;;
56045;SDS011;41913;51.030;3.706;2023-12-22T04:01:01;7.00;;;1.88;;
56045;SDS011;41913;51.030;3.706;2023-12-22T04:03:27;7.90;;;2.33;;
56045;SDS011;41913;51.030;3.706;2023-12-22T04:05:53;2.80;;;1.60;;
56045;SDS011;41913;51.030;3.706;2023-12-22T04:08:19;7.18;;;1.77;;
56045;SDS011;41913;51.030;3.706;2023-12-22T04:10:46;7.22;;;2.30;;
56045;SDS011;41913;51.030;3.706;2023-12-22T04:13:12;5.57;;;2.45;;
56045;SDS011;41913;51.030;3.706;2023-12-22T04:15:38;8.38;;;2.28;;
56045;SDS011;41913;51.030;3.706;2023-12-22T04:18:04;9.57;;;1.95;;
56045;SDS011;41913;51.030;3.706;2023-12-22T04:20:30;3.75;;;1.70;;
56045;SDS011;41913;51.030;3.706;2023-12-22T04:22:56;10.43;;;1.83;;
56045;SDS011;41913;51.030;3.706;2023-12-22T04:25:22;11.35;;;3.05;;
56045;SDS011;41913;51.030;3.706;2023-12-22T04:27:49;7.20;;;2.78;;
56045;SDS011;41913;51.030;3.706;2023-12-22T04:30:16;6.88;;;2.10;;
56045;SDS011;41913;51.030;3.706;2023-12-22T04:32:42;6.60;;;2.13;;
56045;SDS011;41913;51.030;3.706;2023-12-22T04:35:08;8.80;;;2.35;;
56045;SDS011;41913;51.030;3.706;2023-12-22T04:37:34;8.43;;;2.63;;
56045;SDS011;41913;51.030;3.706;2023-12-22T04:40:00;7.32;;;2.25;;
56045;SDS011;41913;51.030;3.706;2023-12-22T04:42:26;8.13;;;2.72;;
56045;SDS011;41913;51.030;3.706;2023-12-22T04:44:53;6.43;;;2.53;;
56045;SDS011;41913;51.030;3.706;2023-12-22T04:47:19;5.43;;;2.50;;
56045;SDS011;41913;51.030;3.706;2023-12-22T04:49:46;7.72;;;2.35;;
56045;SDS011;41913;51.030;3.706;2023-12-22T04:52:11;8.45;;;2.53;;
56045;SDS011;41913;51.030;3.706;2023-12-22T04:54:37;10.25;;;3.13;;
56045;SDS011;41913;51.030;3.706;2023-12-22T04:57:03;7.68;;;2.13;;
56045;SDS011;41913;51.030;3.706;2023-12-22T04:59:30;6.97;;;2.33;;
56045;SDS011;41913;51.030;3.706;2023-12-22T05:01:56;6.15;;;2.13;;
56045;SDS011;41913;51.030;3.706;2023-12-22T05:04:21;5.18;;;2.30;;
56045;SDS011;41913;51.030;3.706;2023-12-22T05:06:48;9.00;;;2.13;;
56045;SDS011;41913;51.030;3.706;2023-12-22T05:09:14;4.28;;;2.28;;
56045;SDS011;41913;51.030;3.706;2023-12-22T05:11:40;4.22;;;2.20;;
56045;SDS011;41913;51.030;3.706;2023-12-22T05:14:06;7.82;;;2.50;;
56045;SDS011;41913;51.030;3.706;2023-12-22T05:16:32;6.45;;;2.85;;
56045;SDS011;41913;51.030;3.706;2023-12-22T05:18:58;8.95;;;2.40;;
56045;SDS011;41913;51.030;3.706;2023-12-22T05:21:24;9.57;;;2.38;;
56045;SDS011;41913;51.030;3.706;2023-12-22T05:23:51;7.88;;;2.30;;
56045;SDS011;41913;51.030;3.706;2023-12-22T05:26:20;7.45;;;2.67;;
56045;SDS011;41913;51.030;3.706;2023-12-22T05:28:46;5.85;;;1.85;;
56045;SDS011;41913;51.030;3.706;2023-12-22T05:31:14;7.22;;;3.17;;
56045;SDS011;41913;51.030;3.706;2023-12-22T05:33:41;4.80;;;2.30;;
56045;SDS011;41913;51.030;3.706;2023-12-22T05:36:06;4.68;;;1.98;;
56045;SDS011;41913;51.030;3.706;2023-12-22T05:38:36;6.25;;;2.17;;
56045;SDS011;41913;51.030;3.706;2023-12-22T05:41:05;6.10;;;2.22;;
56045;SDS011;41913;51.030;3.706;2023-12-22T05:43:31;4.70;;;2.05;;
56045;SDS011;41913;51.030;3.706;2023-12-22T05:45:58;4.38;;;2.22;;
56045;SDS011;41913;51.030;3.706;2023-12-22T05:48:25;4.45;;;2.20;;
56045;SDS011;41913;51.030;3.706;2023-12-22T05:50:53;5.38;;;2.47;;
56045;SDS011;41913;51.030;3.706;2023-12-22T05:53:22;3.50;;;1.98;;
56045;SDS011;41913;51.030;3.706;2023-12-22T05:55:48;8.65;;;2.20;;
56045;SDS011;41913;51.030;3.706;2023-12-22T05:58:15;5.53;;;1.92;;
56045;SDS011;41913;51.030;3.706;2023-12-22T06:00:40;6.82;;;1.98;;
56045;SDS011;41913;51.030;3.706;2023-12-22T06:03:06;6.25;;;2.00;;
56045;SDS011;41913;51.030;3.706;2023-12-22T06:05:32;2.63;;;1.85;;
56045;SDS011;41913;51.030;3.706;2023-12-22T06:07:58;10.18;;;2.13;;
56045;SDS011;41913;51.030;3.706;2023-12-22T06:10:24;3.83;;;1.88;;
56045;SDS011;41913;51.030;3.706;2023-12-22T06:12:50;5.05;;;2.20;;
56045;SDS011;41913;51.030;3.706;2023-12-22T06:15:16;4.22;;;2.03;;
56045;SDS011;41913;51.030;3.706;2023-12-22T06:17:42;3.30;;;1.73;;
56045;SDS011;41913;51.030;3.706;2023-12-22T06:20:08;3.80;;;1.98;;
56045;SDS011;41913;51.030;3.706;2023-12-22T06:22:34;4.55;;;1.40;;
56045;SDS011;41913;51.030;3.706;2023-12-22T06:27:32;2.90;;;1.67;;
56045;SDS011;41913;51.030;3.706;2023-12-22T06:29:59;3.75;;;1.00;;
56045;SDS011;41913;51.030;3.706;2023-12-22T06:32:24;6.70;;;2.25;;
56045;SDS011;41913;51.030;3.706;2023-12-22T06:34:50;8.38;;;2.08;;
56045;SDS011;41913;51.030;3.706;2023-12-22T06:37:17;10.63;;;2.47;;
56045;SDS011;41913;51.030;3.706;2023-12-22T06:39:42;17.98;;;2.63;;
56045;SDS011;41913;51.030;3.706;2023-12-22T06:42:11;11.45;;;1.90;;
56045;SDS011;41913;51.030;3.706;2023-12-22T06:44:41;22.40;;;4.15;;
56045;SDS011;41913;51.030;3.706;2023-12-22T06:47:08;23.58;;;3.85;;
56045;SDS011;41913;51.030;3.706;2023-12-22T06:49:34;26.23;;;2.92;;
56045;SDS011;41913;51.030;3.706;2023-12-22T06:52:00;31.17;;;5.32;;
56045;SDS011;41913;51.030;3.706;2023-12-22T06:54:27;19.45;;;3.78;;
56045;SDS011;41913;51.030;3.706;2023-12-22T06:56:54;49.95;;;5.78;;
56045;SDS011;41913;51.030;3.706;2023-12-22T06:59:20;39.67;;;5.43;;
56045;SDS011;41913;51.030;3.706;2023-12-22T07:01:45;39.05;;;4.43;;
56045;SDS011;41913;51.030;3.706;2023-12-22T07:04:12;21.88;;;4.18;;
56045;SDS011;41913;51.030;3.706;2023-12-22T07:06:44;25.77;;;3.28;;
56045;SDS011;41913;51.030;3.706;2023-12-22T07:11:50;15.85;;;3.35;;
56045;SDS011;41913;51.030;3.706;2023-12-22T07:14:24;16.08;;;2.92;;
56045;SDS011;41913;51.030;3.706;2023-12-22T07:16:49;11.38;;;2.75;;
56045;SDS011;41913;51.030;3.706;2023-12-22T07:19:18;10.30;;;2.72;;
56045;SDS011;41913;51.030;3.706;2023-12-22T07:21:45;7.32;;;1.55;;
56045;SDS011;41913;51.030;3.706;2023-12-22T07:24:11;3.72;;;1.85;;
56045;SDS011;41913;51.030;3.706;2023-12-22T07:26:39;8.35;;;2.35;;
56045;SDS011;41913;51.030;3.706;2023-12-22T07:29:04;7.45;;;2.28;;
56045;SDS011;41913;51.030;3.706;2023-12-22T07:31:30;7.30;;;1.65;;
56045;SDS011;41913;51.030;3.706;2023-12-22T07:33:56;2.83;;;1.02;;
56045;SDS011;41913;51.030;3.706;2023-12-22T07:36:22;7.20;;;2.03;;
56045;SDS011;41913;51.030;3.706;2023-12-22T07:38:47;8.93;;;2.08;;
56045;SDS011;41913;51.030;3.706;2023-12-22T07:41:13;4.53;;;1.60;;
56045;SDS011;41913;51.030;3.706;2023-12-22T07:43:40;7.95;;;2.05;;
56045;SDS011;41913;51.030;3.706;2023-12-22T07:46:07;9.25;;;1.55;;
56045;SDS011;41913;51.030;3.706;2023-12-22T07:48:35;4.60;;;1.45;;
56045;SDS011;41913;51.030;3.706;2023-12-22T07:51:01;12.75;;;1.80;;
56045;SDS011;41913;51.030;3.706;2023-12-22T07:53:27;8.15;;;2.53;;
56045;SDS011;41913;51.030;3.706;2023-12-22T07:55:52;4.07;;;1.25;;
56045;SDS011;41913;51.030;3.706;2023-12-22T07:58:18;9.02;;;1.80;;
56045;SDS011;41913;51.030;3.706;2023-12-22T08:00:44;6.35;;;1.90;;
56045;SDS011;41913;51.030;3.706;2023-12-22T08:03:11;11.38;;;1.88;;
56045;SDS011;41913;51.030;3.706;2023-12-22T08:05:37;7.15;;;1.92;;
56045;SDS011;41913;51.030;3.706;2023-12-22T08:08:05;8.25;;;1.40;;
56045;SDS011;41913;51.030;3.706;2023-12-22T08:10:31;6.50;;;1.63;;
56045;SDS011;41913;51.030;3.706;2023-12-22T08:12:57;4.60;;;1.73;;
56045;SDS011;41913;51.030;3.706;2023-12-22T08:15:23;7.57;;;1.98;;
56045;SDS011;41913;51.030;3.706;2023-12-22T08:17:49;4.50;;;1.55;;
56045;SDS011;41913;51.030;3.706;2023-12-22T08:20:17;2.90;;;1.48;;
56045;SDS011;41913;51.030;3.706;2023-12-22T08:22:45;3.90;;;1.42;;
56045;SDS011;41913;51.030;3.706;2023-12-22T08:25:12;4.25;;;1.38;;
56045;SDS011;41913;51.030;3.706;2023-12-22T08:27:38;7.65;;;2.35;;
56045;SDS011;41913;51.030;3.706;2023-12-22T08:30:04;31.13;;;2.90;;
56045;SDS011;41913;51.030;3.706;2023-12-22T08:32:30;7.90;;;2.30;;
56045;SDS011;41913;51.030;3.706;2023-12-22T08:34:56;12.75;;;2.10;;
56045;SDS011;41913;51.030;3.706;2023-12-22T08:37:22;3.90;;;1.40;;
56045;SDS011;41913;51.030;3.706;2023-12-22T08:39:47;13.82;;;2.90;;
56045;SDS011;41913;51.030;3.706;2023-12-22T08:42:13;24.20;;;3.97;;
56045;SDS011;41913;51.030;3.706;2023-12-22T08:44:40;7.05;;;2.35;;
56045;SDS011;41913;51.030;3.706;2023-12-22T08:47:06;6.93;;;1.98;;
56045;SDS011;41913;51.030;3.706;2023-12-22T08:49:31;13.10;;;3.20;;
56045;SDS011;41913;51.030;3.706;2023-12-22T08:51:57;13.85;;;2.47;;
56045;SDS011;41913;51.030;3.706;2023-12-22T08:54:23;9.25;;;2.15;;
56045;SDS011;41913;51.030;3.706;2023-12-22T08:56:49;14.13;;;2.53;;
56045;SDS011;41913;51.030;3.706;2023-12-22T08:59:14;6.22;;;1.60;;
56045;SDS011;41913;51.030;3.706;2023-12-22T09:01:40;17.98;;;1.80;;
56045;SDS011;41913;51.030;3.706;2023-12-22T09:04:07;12.77;;;1.77;;
56045;SDS011;41913;51.030;3.706;2023-12-22T09:06:38;5.80;;;1.40;;
56045;SDS011;41913;51.030;3.706;2023-12-22T09:09:04;5.60;;;2.03;;
56045;SDS011;41913;51.030;3.706;2023-12-22T09:11:31;8.85;;;1.25;;
56045;SDS011;41913;51.030;3.706;2023-12-22T09:13:57;5.78;;;1.13;;
56045;SDS011;41913;51.030;3.706;2023-12-22T09:16:23;3.13;;;1.30;;
56045;SDS011;41913;51.030;3.706;2023-12-22T09:18:50;3.25;;;1.00;;
56045;SDS011;41913;51.030;3.706;2023-12-22T09:21:16;3.05;;;1.35;;
56045;SDS011;41913;51.030;3.706;2023-12-22T09:23:46;4.75;;;1.10;;
56045;SDS011;41913;51.030;3.706;2023-12-22T09:26:15;7.80;;;1.38;;
56045;SDS011;41913;51.030;3.706;2023-12-22T09:28:43;6.28;;;1.10;;
56045;SDS011;41913;51.030;3.706;2023-12-22T09:31:13;4.22;;;1.00;;
56045;SDS011;41913;51.030;3.706;2023-12-22T09:33:42;4.13;;;1.10;;
56045;SDS011;41913;51.030;3.706;2023-12-22T09:36:08;3.17;;;1.33;;
56045;SDS011;41913;51.030;3.706;2023-12-22T09:38:34;9.18;;;1.20;;
56045;SDS011;41913;51.030;3.706;2023-12-22T09:41:00;3.40;;;0.77;;
56045;SDS011;41913;51.030;3.706;2023-12-22T09:43:27;1.30;;;0.65;;
56045;SDS011;41913;51.030;3.706;2023-12-22T09:45:54;2.45;;;0.90;;
56045;SDS011;41913;51.030;3.706;2023-12-22T09:48:20;9.05;;;0.90;;
56045;SDS011;41913;51.030;3.706;2023-12-22T09:50:52;2.93;;;0.97;;
56045;SDS011;41913;51.030;3.706;2023-12-22T09:53:22;4.50;;;0.90;;
56045;SDS011;41913;51.030;3.706;2023-12-22T09:55:49;2.55;;;0.80;;
56045;SDS011;41913;51.030;3.706;2023-12-22T09:58:16;1.48;;;0.90;;
56045;SDS011;41913;51.030;3.706;2023-12-22T10:00:43;9.00;;;1.42;;
56045;SDS011;41913;51.030;3.706;2023-12-22T10:03:10;2.00;;;1.00;;
56045;SDS011;41913;51.030;3.706;2023-12-22T10:05:37;3.92;;;1.00;;
56045;SDS011;41913;51.030;3.706;2023-12-22T10:08:05;1.63;;;1.10;;
56045;SDS011;41913;51.030;3.706;2023-12-22T10:10:32;1.42;;;0.65;;
56045;SDS011;41913;51.030;3.706;2023-12-22T10:12:58;2.45;;;0.93;;
56045;SDS011;41913;51.030;3.706;2023-12-22T10:15:24;2.20;;;0.65;;
56045;SDS011;41913;51.030;3.706;2023-12-22T10:17:52;1.52;;;0.75;;
56045;SDS011;41913;51.030;3.706;2023-12-22T10:20:19;2.40;;;0.80;;
56045;SDS011;41913;51.030;3.706;2023-12-22T10:22:45;2.00;;;0.80;;
56045;SDS011;41913;51.030;3.706;2023-12-22T10:25:14;1.30;;;0.63;;
56045;SDS011;41913;51.030;3.706;2023-12-22T10:27:42;2.97;;;0.85;;
56045;SDS011;41913;51.030;3.706;2023-12-22T10:30:08;2.33;;;0.70;;
56045;SDS011;41913;51.030;3.706;2023-12-22T10:32:40;0.50;;;0.50;;
56045;SDS011;41913;51.030;3.706;2023-12-22T10:35:10;2.00;;;0.47;;
56045;SDS011;41913;51.030;3.706;2023-12-22T10:37:35;3.00;;;0.90;;
56045;SDS011;41913;51.030;3.706;2023-12-22T10:40:06;1.80;;;0.77;;
56045;SDS011;41913;51.030;3.706;2023-12-22T10:42:34;2.60;;;0.63;;
56045;SDS011;41913;51.030;3.706;2023-12-22T10:45:01;1.98;;;0.85;;
56045;SDS011;41913;51.030;3.706;2023-12-22T10:47:27;0.60;;;0.50;;
56045;SDS011;41913;51.030;3.706;2023-12-22T10:49:54;2.08;;;0.73;;
56045;SDS011;41913;51.030;3.706;2023-12-22T10:52:20;2.45;;;1.05;;
56045;SDS011;41913;51.030;3.706;2023-12-22T10:54:46;0.52;;;0.40;;
56045;SDS011;41913;51.030;3.706;2023-12-22T10:57:16;2.42;;;0.55;;
56045;SDS011;41913;51.030;3.706;2023-12-22T10:59:44;0.60;;;0.50;;
56045;SDS011;41913;51.030;3.706;2023-12-22T11:02:15;2.92;;;0.98;;
56045;SDS011;41913;51.030;3.706;2023-12-22T11:05:04;0.80;;;0.73;;
56045;SDS011;41913;51.030;3.706;2023-12-22T11:07:34;2.67;;;0.75;;
56045;SDS011;41913;51.030;3.706;2023-12-22T11:10:04;0.90;;;0.57;;
56045;SDS011;41913;51.030;3.706;2023-12-22T11:12:35;1.00;;;0.45;;
56045;SDS011;41913;51.030;3.706;2023-12-22T11:15:03;1.55;;;0.80;;
56045;SDS011;41913;51.030;3.706;2023-12-22T11:17:34;3.67;;;0.98;;
56045;SDS011;41913;51.030;3.706;2023-12-22T11:20:05;2.20;;;0.80;;
56045;SDS011;41913;51.030;3.706;2023-12-22T11:22:35;1.33;;;0.60;;
56045;SDS011;41913;51.030;3.706;2023-12-22T11:25:03;1.23;;;0.70;;
56045;SDS011;41913;51.030;3.706;2023-12-22T11:27:33;3.53;;;0.50;;
56045;SDS011;41913;51.030;3.706;2023-12-22T11:30:00;0.98;;;0.50;;
56045;SDS011;41913;51.030;3.706;2023-12-22T11:32:26;2.83;;;0.60;;
56045;SDS011;41913;51.030;3.706;2023-12-22T11:34:54;4.05;;;0.70;;
56045;SDS011;41913;51.030;3.706;2023-12-22T11:37:22;4.65;;;1.23;;
56045;SDS011;41913;51.030;3.706;2023-12-22T11:39:48;1.05;;;0.60;;
56045;SDS011;41913;51.030;3.706;2023-12-22T11:42:18;3.30;;;0.85;;
56045;SDS011;41913;51.030;3.706;2023-12-22T11:44:48;0.50;;;0.40;;
56045;SDS011;41913;51.030;3.706;2023-12-22T11:47:14;1.80;;;0.65;;
56045;SDS011;41913;51.030;3.706;2023-12-22T11:49:40;2.38;;;1.00;;
56045;SDS011;41913;51.030;3.706;2023-12-22T11:52:10;1.77;;;0.50;;
56045;SDS011;41913;51.030;3.706;2023-12-22T11:55:10;3.30;;;0.45;;
56045;SDS011;41913;51.030;3.706;2023-12-22T11:57:38;2.57;;;0.70;;
56045;SDS011;41913;51.030;3.706;2023-12-22T12:00:08;6.00;;;0.70;;
56045;SDS011;41913;51.030;3.706;2023-12-22T12:02:36;0.47;;;0.45;;
56045;SDS011;41913;51.030;3.706;2023-12-22T12:05:04;1.15;;;0.88;;
56045;SDS011;41913;51.030;3.706;2023-12-22T12:07:36;2.60;;;0.77;;
56045;SDS011;41913;51.030;3.706;2023-12-22T12:13:05;0.70;;;0.70;;
56045;SDS011;41913;51.030;3.706;2023-12-22T12:15:35;5.10;;;0.63;;
56045;SDS011;41913;51.030;3.706;2023-12-22T12:18:02;0.50;;;0.50;;
56045;SDS011;41913;51.030;3.706;2023-12-22T12:20:28;0.65;;;0.40;;
56045;SDS011;41913;51.030;3.706;2023-12-22T12:22:54;1.08;;;0.63;;
56045;SDS011;41913;51.030;3.706;2023-12-22T12:25:23;1.45;;;0.50;;
56045;SDS011;41913;51.030;3.706;2023-12-22T12:28:03;0.35;;;0.32;;
56045;SDS011;41913;51.030;3.706;2023-12-22T12:30:30;0.70;;;0.40;;
56045;SDS011;41913;51.030;3.706;2023-12-22T12:32:58;1.33;;;0.50;;
56045;SDS011;41913;51.030;3.706;2023-12-22T12:35:31;1.35;;;0.50;;
56045;SDS011;41913;51.030;3.706;2023-12-22T12:37:58;3.00;;;0.63;;
56045;SDS011;41913;51.030;3.706;2023-12-22T12:40:25;1.65;;;0.52;;
56045;SDS011;41913;51.030;3.706;2023-12-22T12:42:57;0.70;;;0.40;;
56045;SDS011;41913;51.030;3.706;2023-12-22T12:45:23;1.33;;;0.68;;
56045;SDS011;41913;51.030;3.706;2023-12-22T12:47:56;1.40;;;0.55;;
56045;SDS011;41913;51.030;3.706;2023-12-22T12:50:26;1.48;;;0.50;;
56045;SDS011;41913;51.030;3.706;2023-12-22T12:52:53;1.88;;;0.30;;
56045;SDS011;41913;51.030;3.706;2023-12-22T12:55:23;1.17;;;0.40;;
56045;SDS011;41913;51.030;3.706;2023-12-22T12:57:52;0.70;;;0.47;;
56045;SDS011;41913;51.030;3.706;2023-12-22T13:00:26;3.45;;;0.50;;
56045;SDS011;41913;51.030;3.706;2023-12-22T13:03:04;2.47;;;0.80;;
56045;SDS011;41913;51.030;3.706;2023-12-22T13:05:31;0.70;;;0.38;;
56045;SDS011;41913;51.030;3.706;2023-12-22T13:08:07;2.20;;;0.75;;
56045;SDS011;41913;51.030;3.706;2023-12-22T13:10:37;2.47;;;0.75;;
56045;SDS011;41913;51.030;3.706;2023-12-22T13:13:04;1.63;;;0.60;;
56045;SDS011;41913;51.030;3.706;2023-12-22T13:15:30;1.00;;;0.30;;
56045;SDS011;41913;51.030;3.706;2023-12-22T13:17:56;0.55;;;0.40;;
56045;SDS011;41913;51.030;3.706;2023-12-22T13:20:22;3.10;;;0.82;;
56045;SDS011;41913;51.030;3.706;2023-12-22T13:22:48;2.30;;;0.70;;
56045;SDS011;41913;51.030;3.706;2023-12-22T13:25:15;1.60;;;0.70;;
56045;SDS011;41913;51.030;3.706;2023-12-22T13:27:45;1.38;;;0.65;;
56045;SDS011;41913;51.030;3.706;2023-12-22T13:30:36;1.85;;;0.45;;
56045;SDS011;41913;51.030;3.706;2023-12-22T13:33:03;1.05;;;0.70;;
56045;SDS011;41913;51.030;3.706;2023-12-22T13:35:29;1.02;;;0.57;;
56045;SDS011;41913;51.030;3.706;2023-12-22T13:37:55;3.17;;;0.90;;
56045;SDS011;41913;51.030;3.706;2023-12-22T13:40:21;0.68;;;0.50;;
56045;SDS011;41913;51.030;3.706;2023-12-22T13:42:57;1.67;;;0.40;;
56045;SDS011;41913;51.030;3.706;2023-12-22T13:45:25;1.17;;;0.70;;
56045;SDS011;41913;51.030;3.706;2023-12-22T13:47:52;1.25;;;0.82;;
56045;SDS011;41913;51.030;3.706;2023-12-22T13:50:18;1.27;;;1.17;;
56045;SDS011;41913;51.030;3.706;2023-12-22T13:52:45;0.73;;;0.50;;
56045;SDS011;41913;51.030;3.706;2023-12-22T13:55:15;1.83;;;1.02;;
56045;SDS011;41913;51.030;3.706;2023-12-22T13:57:42;0.65;;;0.30;;
56045;SDS011;41913;51.030;3.706;2023-12-22T14:02:44;0.77;;;0.77;;
56045;SDS011;41913;51.030;3.706;2023-12-22T14:05:18;0.93;;;0.50;;
56045;SDS011;41913;51.030;3.706;2023-12-22T14:07:46;1.98;;;0.68;;
56045;SDS011;41913;51.030;3.706;2023-12-22T14:10:13;0.88;;;0.50;;
56045;SDS011;41913;51.030;3.706;2023-12-22T14:12:39;1.70;;;0.98;;
56045;SDS011;41913;51.030;3.706;2023-12-22T14:15:06;0.38;;;0.38;;
56045;SDS011;41913;51.030;3.706;2023-12-22T14:17:34;4.45;;;0.60;;
56045;SDS011;41913;51.030;3.706;2023-12-22T14:19:59;1.23;;;0.75;;
56045;SDS011;41913;51.030;3.706;2023-12-22T14:22:25;2.10;;;1.17;;
56045;SDS011;41913;51.030;3.706;2023-12-22T14:24:52;1.13;;;0.45;;
56045;SDS011;41913;51.030;3.706;2023-12-22T14:27:18;0.95;;;0.60;;
56045;SDS011;41913;51.030;3.706;2023-12-22T14:29:44;4.03;;;0.60;;
56045;SDS011;41913;51.030;3.706;2023-12-22T14:32:11;2.97;;;0.98;;
56045;SDS011;41913;51.030;3.706;2023-12-22T14:34:39;3.80;;;0.85;;
56045;SDS011;41913;51.030;3.706;2023-12-22T14:37:06;0.75;;;0.40;;
56045;SDS011;41913;51.030;3.706;2023-12-22T14:39:32;1.13;;;0.68;;
56045;SDS011;41913;51.030;3.706;2023-12-22T14:41:58;0.57;;;0.50;;
56045;SDS011;41913;51.030;3.706;2023-12-22T14:44:24;1.40;;;0.60;;
56045;SDS011;41913;51.030;3.706;2023-12-22T14:46:50;3.70;;;0.60;;
56045;SDS011;41913;51.030;3.706;2023-12-22T14:49:16;0.82;;;0.55;;
56045;SDS011;41913;51.030;3.706;2023-12-22T14:51:43;1.75;;;0.68;;
56045;SDS011;41913;51.030;3.706;2023-12-22T14:54:11;0.65;;;0.40;;
56045;SDS011;41913;51.030;3.706;2023-12-22T14:56:41;1.13;;;0.82;;